RLSO2: Arkansas River, Ralston, OK

                                SHEF ID:       RLSO2     Arkansas River at Ralston, OK
STATION TYPE:
Regulating: Stage = 16.00, Flow = 78729

PRECIP STAGE STAGE(2) RIV-FLOW AIR-TEMP BAT-LOAD
in ft ft cfs F volt
Ccp-Rev Ccp-Rev Ccp-Rev Ccp-Rev Ccp-Rev Ccp-Rev
(America/Chicago)
02/06 00:00 0.00 4.56 4.58 1624 44.60 12.14
02/06 01:00 0.00 4.54 4.56 1593 47.48 12.14
02/06 02:00 0.00 4.55 4.54 1608 48.20 12.13
02/06 03:00 0.00 4.55 4.57 1608 46.76 12.12
02/06 04:00 0.00 4.55 4.57 1608 44.42 12.13
02/06 05:00 0.00 4.56 4.58 1624 42.98 12.11
02/06 06:00 0.00 4.56 4.58 1624 41.00 12.11
02/06 07:00 0.00 4.55 4.58 1608 39.02 12.11
02/06 08:00 0.00 4.57 4.58 1640 42.80 12.11
02/06 09:00 0.00 4.56 4.54 1624 55.40 12.09
02/06 10:00 0.00 4.55 4.52 1608 60.80 12.08
02/06 11:00 0.00 4.46 4.50 1471 63.32 12.09
02/06 12:00 0.00 4.48 4.50 1501 66.56 12.10
02/06 13:00 0.00 4.47 4.48 1486 69.08 12.11
02/06 14:00 0.00 4.46 4.50 1471 71.42 12.37
02/06 15:00 0.00 4.49 4.47 1516 71.24 12.44
02/06 16:00 0.00 4.45 4.49 1456 69.08 12.41
02/06 17:00 0.00 4.44 4.52 1442 67.10 12.33
02/06 18:00 0.00 4.49 4.52 1516 61.70 12.31
02/06 19:00 0.00 4.49 4.49 1516 56.12 12.27
02/06 20:00 0.00 4.51 4.52 1546 51.98 12.27
02/06 21:00 0.00 4.52 4.53 1562 49.10 12.25
02/06 22:00 0.00 4.51 4.53 1546 45.86 12.24
02/06 23:00 0.00 4.51 4.55 1546 44.24 12.23
Data processed at Sat 07Feb2026 05:21 GMT

NOTICE: If you are parsing this page

Please convert to using our Data API. Starting early 2026 we will be migrating to: https://water.usace.army.mil with modern pages rendered in JavaScript. When this migration completes you will no longer be able to scrape this page! CWMSDataAPI (CDA)

Timeseries IDs (TSIDs)

TSIDs used from left to right in the data table
RALS.Precip-Inc.Total.1Hour.1Hour.Ccp-Rev
RALS.Stage.Inst.1Hour.0.Ccp-Rev
RALS.Stage-Alt.Inst.1Hour.0.Ccp-Rev
RALS.Flow.Inst.1Hour.0.Ccp-Rev
RALS.Temp-Air.Inst.1Hour.0.Ccp-Rev
RALS.Volt-Battery Load.Inst.1Hour.0.Ccp-Rev

                            

All information presented herein is the property of the government of the United States of America and may be revised or deleted at any time without prior notice. Dissemination of this information without the expressed written consent of the Public Affairs Office, Tulsa District U.S. Army Corps of Engineers is strictly prohibited. These data are gathered electronically and, as presented, have NOT undergone any form of quality control. These data are NOT guaranteed to be valid or correct.